Malibu, CA (90263)

7:45 PM PDT on August 04, 2015 (GMT -0700)
Pt. Dume - Dume Drive | | Change Station
CLOSE
Current Station
Personal Weather Station
Location: Malibu, CA
Elevation: 213 ft
Nearby Weather Stations

Elev 213 ft 34.02 °N, 118.81 °W | Updated 1 minute ago

Clear
Clear
69.4 °F
Feels Like 69.4 °F
N
8.0
Wind Variable Wind from West
Gusts 12.0 mph

Today
High -- | Low -- °F
--% Chance of Precip.
Yesterday
High -- | Low -- °F
Precip. -- in
6:08 AM 7:53 PM
Waning Gibbous, 72% visible
Pressure 29.91 in
Visibility 10.0 miles
Clouds Few 28000 ft
Dew Point 62 °F
Humidity 77%
Rainfall 0.00 in
Snow Depth Not available.
UV 0 out of 12
Pollen 4.00 out of 12
Air Quality Not available.
Flu Activity Not available.
METAR KNTD 050156Z 29010G16KT 10SM FEW280 23/15 A2991 RMK AO2 SLP129 T02330150 $

More Conditions Fewer Conditions

Pressure 29.91 in
Visibility 10.0 miles
Clouds Few 28000 ft
Dew Point 62 °F
Humidity 77%
Rainfall 0.00 in
Snow Depth Not available.
UV 0 out of 12
Pollen 4.00 out of 12
Air Quality Not available.
Flu Activity Not available.
METAR KNTD 050156Z 29010G16KT 10SM FEW280 23/15 A2991 RMK AO2 SLP129 T02330150 $

More Conditions Fewer Conditions

10-Day Weather Forecast

×

Almanac

Astronomy

Aug. 04, 2015 Rise Set
Actual Time
Civil Twilight
Nautical Twilight
Astronomical Twilight
Moon
Length of Visible Light
Length of Day
Tomorrow will be .
, % of the Moon is Illuminated

Today's Extremes

State Highs State Lows

Community

WunderPhotos

Upload Photos

1,844,089 photos uploaded!

WunderBlogs® & News

Nearby

Air Quality

  Air Quality AQ Index Pollutant
Not available.

Snow Depth

Station Depth Elevation

Earthquake Activity

City Distance Mag. Time & Date
Minimum magnitude displayed is 2.5.

Coastal Water Temperatures

Place Temperature

Stations

Nearby Weather Stations

Station Location Temp. Windchill Dew Point Humidity Wind Precip. Elev Updated Type